Time;durP1;ratioP1;P1;durP2;ratioP2;P2;SDS_P1;SDS_P2;PMS_P1;PMS_P2;Temp;Humidity;BMP_temperature;BMP_pressure;BME280_temperature;BME280_humidity;BME280_pressure;Samples;Min_cycle;Max_cycle;Signal;HPM_P1;HPM_P2
2023/03/22 00:00:49;;;;;;;;;;;;;;;15.55;50.70;100660.28;4997290;28;1144;-44
2023/03/22 00:03:14;;;;;;;;;;;;;;;15.37;51.06;100656.91;4997164;28;883;-41
2023/03/22 00:05:40;;;;;;;;;;;;;;;16.82;47.72;100654.34;4996599;28;1136;-44
2023/03/22 00:08:07;;;;;;;;;;;;;;;17.18;46.58;100654.22;4996652;28;1121;-47
2023/03/22 00:10:32;;;;;;;;;;;;;;;16.23;49.20;100646.44;4997501;28;1057;-48
2023/03/22 00:12:58;;;;;;;;;;;;;;;15.84;50.15;100646.13;4997260;28;1144;-45
2023/03/22 00:15:24;;;;;;;;;;;;;;;15.64;50.77;100644.13;4997145;28;1910;-48
2023/03/22 00:17:50;;;;;;;;;;;;;;;15.48;50.85;100655.03;4996902;28;1172;-43
2023/03/22 00:20:16;;;;;;;;;;;;;;;16.08;49.72;100649.97;4996451;28;1029;-45
2023/03/22 00:22:42;;;;;;;;;;;;;;;17.23;46.72;100651.47;4997026;28;1422;-45
2023/03/22 00:25:07;;;;;;;;;;;;;;;16.24;49.06;100647.22;4996365;28;1096;-45
2023/03/22 00:27:33;;;;;;;;;;;;;;;15.80;50.18;100640.34;4996614;28;1096;-45
2023/03/22 00:29:58;;;;;;;;;;;;;;;15.61;50.66;100642.72;4996687;28;1068;-44
2023/03/22 00:32:24;;;;;;;;;;;;;;;16.25;49.38;100644.22;4997100;28;1056;-45
2023/03/22 00:34:49;;;;;;;;;;;;;;;16.81;47.73;100638.94;4996496;28;1984;-45
2023/03/22 00:37:15;;;;;;;;;;;;;;;16.05;49.70;100634.06;4995403;28;1276;-42
2023/03/22 00:39:41;;;;;;;;;;;;;;;15.73;50.51;100643.31;4996406;28;1168;-49
2023/03/22 00:42:06;;;;;;;;;;;;;;;15.58;50.47;100643.28;4996730;28;1104;-45
2023/03/22 00:44:32;;;;;;;;;;;;;;;15.81;50.16;100633.78;4996448;28;1184;-49
2023/03/22 00:46:57;;;;;;;;;;;;;;;17.24;46.85;100620.16;4996834;28;1125;-48
2023/03/22 00:49:24;;;;;;;;;;;;;;;16.33;48.66;100615.41;4996029;28;1075;-44
2023/03/22 00:51:50;;;;;;;;;;;;;;;15.85;49.81;100612.09;5017650;28;1543;-46
2023/03/22 00:54:16;;;;;;;;;;;;;;;15.66;50.44;100611.78;4993401;28;1914;-44
2023/03/22 00:56:44;;;;;;;;;;;;;;;16.97;47.57;100602.13;4995286;28;1175;-44
2023/03/22 00:59:12;;;;;;;;;;;;;;;16.52;48.35;100604.69;4996117;28;1009;-48
2023/03/22 01:01:38;;;;;;;;;;;;;;;16.05;49.58;100606.63;4995075;28;1201;-45
2023/03/22 01:04:04;;;;;;;;;;;;;;;15.72;50.45;100602.47;4994918;28;1111;-44
2023/03/22 01:06:30;;;;;;;;;;;;;;;15.54;50.67;100590.09;4997081;28;1123;-44
2023/03/22 01:08:56;;;;;;;;;;;;;;;16.71;48.22;100601.34;4995342;28;1121;-48
2023/03/22 01:11:22;;;;;;;;;;;;;;;16.65;47.90;100595.06;5000286;28;1033;-47
2023/03/22 01:13:47;;;;;;;;;;;;;;;15.99;49.82;100605.00;4998844;28;1134;-49
2023/03/22 01:16:13;;;;;;;;;;;;;;;15.73;50.35;100607.69;5000432;28;1894;-44
2023/03/22 01:18:39;;;;;;;;;;;;;;;15.53;50.78;100604.91;4998661;28;1170;-43
2023/03/22 01:21:05;;;;;;;;;;;;;;;16.47;48.73;100601.16;4998954;28;1202;-42
2023/03/22 01:23:31;;;;;;;;;;;;;;;16.90;47.47;100604.34;4998821;28;1107;-45
2023/03/22 01:25:57;;;;;;;;;;;;;;;16.10;49.48;100599.50;4998616;28;1369;-44
2023/03/22 01:28:22;;;;;;;;;;;;;;;15.80;50.34;100598.41;4998874;28;1370;-45
2023/03/22 01:30:49;;;;;;;;;;;;;;;15.59;50.70;100592.03;5000024;28;1033;-46
2023/03/22 01:33:15;;;;;;;;;;;;;;;15.43;50.97;100597.50;4998530;28;1319;-46
2023/03/22 01:35:41;;;;;;;;;;;;;;;16.68;48.23;100604.66;4999713;28;1902;-42
2023/03/22 01:38:07;;;;;;;;;;;;;;;16.84;47.60;100597.19;5014657;28;1188;-48
2023/03/22 01:40:37;;;;;;;;;;;;;;;16.05;49.72;100597.59;4998439;28;1355;-44
2023/03/22 01:43:03;;;;;;;;;;;;;;;15.75;50.24;100612.88;4998661;28;1235;-44
2023/03/22 01:45:32;;;;;;;;;;;;;;;15.53;50.79;100616.69;4998413;28;1112;-46
2023/03/22 01:47:58;;;;;;;;;;;;;;;16.06;49.70;100608.28;4998115;28;1002;-45
2023/03/22 01:50:24;;;;;;;;;;;;;;;17.04;47.16;100616.38;5030873;28;1129;-46
2023/03/22 01:52:49;;;;;;;;;;;;;;;16.11;49.21;100614.88;4998497;28;1216;-44
2023/03/22 01:55:23;;;;;;;;;;;;;;;15.79;50.12;100618.66;5013069;28;2049;-43
2023/03/22 01:57:57;;;;;;;;;;;;;;;15.55;50.57;100621.91;5013718;28;1339;-46
2023/03/22 02:00:37;;;;;;;;;;;;;;;15.41;51.12;100624.31;4983831;28;1509;-44
2023/03/22 02:03:18;;;;;;;;;;;;;;;16.98;47.26;100620.22;5000520;28;1409;-47
2023/03/22 02:05:46;;;;;;;;;;;;;;;16.91;47.19;100622.47;5030665;28;1135;-45
2023/03/22 02:08:13;;;;;;;;;;;;;;;16.13;49.47;100618.16;4998238;28;1341;-42
2023/03/22 02:10:58;;;;;;;;;;;;;;;15.79;50.15;100615.91;4997537;28;1297;-43
2023/03/22 02:13:37;;;;;;;;;;;;;;;15.58;50.57;100629.56;5013658;28;1371;-47
2023/03/22 02:16:42;;;;;;;;;;;;;;;15.33;51.14;100628.44;5009519;28;1093;-48
2023/03/22 02:19:29;;;;;;;;;;;;;;;16.66;48.31;100620.56;4999087;28;1072;-44
2023/03/22 02:22:02;;;;;;;;;;;;;;;16.63;47.83;100621.94;5029919;28;1087;-45
2023/03/22 02:24:31;;;;;;;;;;;;;;;15.99;49.67;100618.72;4998010;28;1133;-47
2023/03/22 02:27:16;;;;;;;;;;;;;;;15.65;50.59;100624.66;4997103;28;1274;-48
2023/03/22 02:29:45;;;;;;;;;;;;;;;15.46;51.14;100639.94;4998806;28;1294;-47
2023/03/22 02:32:23;;;;;;;;;;;;;;;16.83;47.71;100642.22;5013558;28;1124;-45
2023/03/22 02:34:59;;;;;;;;;;;;;;;16.56;48.37;100635.16;4997533;28;1987;-45
2023/03/22 02:37:25;;;;;;;;;;;;;;;15.96;49.62;100638.44;4997725;28;1226;-49
2023/03/22 02:39:57;;;;;;;;;;;;;;;15.68;50.50;100639.75;4998363;28;1135;-47
2023/03/22 02:42:29;;;;;;;;;;;;;;;15.48;50.84;100630.38;4998345;28;1228;-45
2023/03/22 02:44:58;;;;;;;;;;;;;;;16.09;49.86;100628.88;4997478;28;1256;-46
2023/03/22 02:47:25;;;;;;;;;;;;;;;17.43;46.30;100623.91;4998220;28;1103;-46
2023/03/22 02:49:53;;;;;;;;;;;;;;;16.52;48.28;100628.56;4981367;28;1263;-49
2023/03/22 02:52:19;;;;;;;;;;;;;;;16.00;49.82;100630.50;4997978;28;889;-47
2023/03/22 02:54:48;;;;;;;;;;;;;;;15.77;50.16;100626.31;4997190;28;1901;-47
2023/03/22 02:57:22;;;;;;;;;;;;;;;15.56;50.67;100631.78;5030173;28;1230;-49
2023/03/22 02:59:47;;;;;;;;;;;;;;;15.74;50.50;100631.25;5020804;28;1183;-47
2023/03/22 03:02:13;;;;;;;;;;;;;;;17.02;47.23;100634.25;4995511;28;1219;-46
2023/03/22 03:04:41;;;;;;;;;;;;;;;16.13;49.26;100640.09;5019548;28;918;-45
2023/03/22 03:07:08;;;;;;;;;;;;;;;15.74;50.20;100653.19;4993966;28;1176;-45
2023/03/22 03:09:34;;;;;;;;;;;;;;;15.53;50.71;100651.50;4980923;28;1167;-44
2023/03/22 03:12:00;;;;;;;;;;;;;;;15.80;50.54;100645.03;4998320;28;1088;-49
2023/03/22 03:14:29;;;;;;;;;;;;;;;17.27;46.52;100642.38;4996468;28;1970;-45
2023/03/22 03:17:05;;;;;;;;;;;;;;;16.36;48.68;100639.56;4996802;28;1377;-45
2023/03/22 03:19:49;;;;;;;;;;;;;;;15.85;49.96;100650.50;5029706;28;1064;-44
2023/03/22 03:22:25;;;;;;;;;;;;;;;15.64;50.63;100646.84;4982206;28;1289;-45
2023/03/22 03:24:54;;;;;;;;;;;;;;;15.65;50.56;100654.81;5025186;28;1250;-47
2023/03/22 03:27:27;;;;;;;;;;;;;;;17.25;46.71;100646.50;5029161;28;1123;-45
2023/03/22 03:29:59;;;;;;;;;;;;;;;16.49;48.26;100648.34;4996654;28;1065;-47
2023/03/22 03:32:30;;;;;;;;;;;;;;;15.90;50.00;100639.53;4995707;28;1104;-47
2023/03/22 03:35:06;;;;;;;;;;;;;;;15.67;50.36;100647.16;5012072;28;1898;-46
2023/03/22 03:37:43;;;;;;;;;;;;;;;15.48;51.00;100646.81;5028919;28;1235;-43
2023/03/22 03:40:13;;;;;;;;;;;;;;;16.04;49.92;100648.06;5003438;28;1215;-49
2023/03/22 03:42:40;;;;;;;;;;;;;;;17.39;46.52;100642.06;4996372;28;1143;-48
2023/03/22 03:45:06;;;;;;;;;;;;;;;16.45;48.49;100649.97;5028988;28;1225;-46
2023/03/22 03:47:31;;;;;;;;;;;;;;;15.91;49.84;100644.75;4997458;28;1235;-48
2023/03/22 03:49:57;;;;;;;;;;;;;;;15.69;50.45;100653.19;4996007;28;1140;-47
2023/03/22 03:52:23;;;;;;;;;;;;;;;15.48;50.83;100654.22;4995989;28;1155;-44
2023/03/22 03:54:49;;;;;;;;;;;;;;;16.52;48.67;100654.09;5011834;28;1910;-49
2023/03/22 03:57:18;;;;;;;;;;;;;;;16.95;47.32;100652.94;4996212;28;1167;-47
2023/03/22 03:59:44;;;;;;;;;;;;;;;16.10;49.64;100657.13;4997629;28;1087;-49
2023/03/22 04:02:19;;;;;;;;;;;;;;;15.75;50.15;100659.50;4995625;28;1507;-47
2023/03/22 04:04:46;;;;;;;;;;;;;;;15.56;50.54;100668.22;5017382;28;1388;-45
2023/03/22 04:07:11;;;;;;;;;;;;;;;16.47;48.65;100665.06;4993823;28;1465;-44
2023/03/22 04:09:38;;;;;;;;;;;;;;;17.60;46.05;100666.72;4997030;28;1140;-45
2023/03/22 04:12:11;;;;;;;;;;;;;;;16.52;48.51;100670.56;4995884;28;1246;-44
2023/03/22 04:14:37;;;;;;;;;;;;;;;16.08;49.64;100671.91;4995567;28;1914;-49
2023/03/22 04:17:10;;;;;;;;;;;;;;;15.76;50.39;100676.78;4995192;28;1628;-48
2023/03/22 04:19:36;;;;;;;;;;;;;;;15.62;50.57;100680.03;4995936;28;1324;-49
2023/03/22 04:22:01;;;;;;;;;;;;;;;15.49;51.00;100670.38;4995676;28;1162;-53
2023/03/22 04:24:29;;;;;;;;;;;;;;;17.06;47.31;100676.53;4995282;28;1253;-56
2023/03/22 04:26:55;;;;;;;;;;;;;;;16.46;48.38;100670.84;4995237;28;1238;-53
2023/03/22 04:29:30;;;;;;;;;;;;;;;15.90;49.86;100672.44;4995972;28;1331;-53
2023/03/22 04:32:03;;;;;;;;;;;;;;;15.65;50.70;100678.66;4995208;28;1261;-53
2023/03/22 04:34:39;;;;;;;;;;;;;;;15.46;51.17;100675.56;5028254;28;1961;-52
2023/03/22 04:37:10;;;;;;;;;;;;;;;16.54;48.48;100682.09;4997007;28;1072;-53
2023/03/22 04:39:43;;;;;;;;;;;;;;;17.36;46.30;100680.28;4994873;28;2016;-51
2023/03/22 04:42:32;;;;;;;;;;;;;;;16.21;49.08;100675.22;4977851;28;1418;-50
2023/03/22 04:45:28;;;;;;;;;;;;;;;15.85;50.27;100683.41;4995355;28;1279;-48
2023/03/22 04:47:59;;;;;;;;;;;;;;;15.57;50.73;100682.72;4995065;28;1110;-53
2023/03/22 04:50:27;;;;;;;;;;;;;;;15.43;50.94;100679.69;4994993;28;1317;-48
2023/03/22 04:52:57;;;;;;;;;;;;;;;16.60;48.49;100683.72;4994672;28;1324;-46
2023/03/22 04:55:26;;;;;;;;;;;;;;;17.00;47.32;100685.88;4994887;28;1902;-48
2023/03/22 04:57:53;;;;;;;;;;;;;;;16.10;49.54;100679.88;4995113;28;1244;-46
2023/03/22 05:00:21;;;;;;;;;;;;;;;15.79;50.41;100685.31;4995240;28;1222;-48
2023/03/22 05:02:48;;;;;;;;;;;;;;;15.57;50.75;100682.72;4994998;28;1364;-49
2023/03/22 05:05:25;;;;;;;;;;;;;;;15.50;50.95;100688.50;4994804;28;1431;-45
2023/03/22 05:07:51;;;;;;;;;;;;;;;17.05;47.42;100686.69;4994733;28;1167;-52
2023/03/22 05:10:17;;;;;;;;;;;;;;;16.67;47.84;100694.44;4995199;28;1107;-50
2023/03/22 05:12:43;;;;;;;;;;;;;;;16.01;49.66;100696.06;4996460;28;1048;-49
2023/03/22 05:15:17;;;;;;;;;;;;;;;15.75;50.25;100692.38;4994439;28;1903;-47
2023/03/22 05:17:43;;;;;;;;;;;;;;;15.54;50.95;100696.97;4991522;28;1219;-51
2023/03/22 05:20:10;;;;;;;;;;;;;;;15.37;51.30;100703.47;4994519;28;1086;-52
2023/03/22 05:22:39;;;;;;;;;;;;;;;16.37;49.11;100698.84;5028095;28;1169;-48
2023/03/22 05:25:06;;;;;;;;;;;;;;;17.27;46.59;100691.03;4995116;28;1346;-50
2023/03/22 05:27:33;;;;;;;;;;;;;;;16.17;49.15;100691.44;4995943;28;1180;-45
2023/03/22 05:30:19;;;;;;;;;;;;;;;15.72;50.32;100693.78;4995008;28;1170;-49
2023/03/22 05:32:51;;;;;;;;;;;;;;;15.55;50.69;100693.16;5027550;28;2370;-47
2023/03/22 05:35:17;;;;;;;;;;;;;;;15.32;51.46;100698.00;5011175;28;1976;-49
2023/03/22 05:37:48;;;;;;;;;;;;;;;16.58;48.44;100701.59;4995205;28;1309;-50
2023/03/22 05:40:15;;;;;;;;;;;;;;;16.56;48.25;100701.03;4994830;28;1177;-50
2023/03/22 05:42:42;;;;;;;;;;;;;;;15.86;49.95;100704.25;5010696;28;1203;-48
2023/03/22 05:45:16;;;;;;;;;;;;;;;15.56;50.78;100703.03;4986918;28;1242;-50
2023/03/22 05:47:44;;;;;;;;;;;;;;;15.39;51.10;100714.19;5023341;28;1354;-51
2023/03/22 05:50:13;;;;;;;;;;;;;;;15.46;51.12;100708.44;5007729;28;1237;-53
2023/03/22 05:52:39;;;;;;;;;;;;;;;17.02;47.44;100701.00;4985027;28;1235;-47
2023/03/22 05:55:24;;;;;;;;;;;;;;;16.41;48.65;100705.44;4981910;28;1906;-47
2023/03/22 05:57:55;;;;;;;;;;;;;;;15.90;49.78;100708.91;4998163;28;1322;-49
2023/03/22 06:00:22;;;;;;;;;;;;;;;15.60;50.85;100703.31;4985032;28;1211;-50
2023/03/22 06:03:06;;;;;;;;;;;;;;;15.35;51.25;100707.59;4983014;28;1231;-52
2023/03/22 06:05:38;;;;;;;;;;;;;;;15.36;51.44;100710.06;4994822;28;1410;-51
2023/03/22 06:08:04;;;;;;;;;;;;;;;16.92;47.42;100701.03;4997588;28;1202;-50
2023/03/22 06:10:29;;;;;;;;;;;;;;;16.28;48.73;100705.94;4997776;28;1294;-49
2023/03/22 06:12:55;;;;;;;;;;;;;;;16.64;48.35;100705.16;4999302;28;1084;-51
2023/03/22 06:15:26;;;;;;;;;;;;;;;15.76;50.06;100713.22;4997456;28;1979;-49
2023/03/22 06:17:54;;;;;;;;;;;;;;;15.50;49.75;100715.91;4998802;28;869;-47
2023/03/22 06:20:24;;;;;;;;;;;;;;;15.26;49.08;100712.75;4997653;28;1318;-50
2023/03/22 06:22:57;;;;;;;;;;;;;;;16.76;48.11;100712.00;4997750;28;1126;-49
2023/03/22 06:25:23;;;;;;;;;;;;;;;15.73;49.71;100708.28;4997707;28;1169;-50
2023/03/22 06:27:49;;;;;;;;;;;;;;;16.38;49.35;100711.47;4997736;28;1353;-51
2023/03/22 06:30:14;;;;;;;;;;;;;;;16.43;48.74;100721.63;4997275;28;1218;-49
2023/03/22 06:33:03;;;;;;;;;;;;;;;15.95;50.20;100721.84;4999649;28;1226;-48
2023/03/22 06:35:33;;;;;;;;;;;;;;;17.53;46.59;100732.16;4997016;28;2151;-52
2023/03/22 06:37:59;;;;;;;;;;;;;;;16.18;49.20;100725.16;4997001;28;1672;-50
2023/03/22 06:40:26;;;;;;;;;;;;;;;15.96;49.02;100728.94;4997475;28;1305;-50
2023/03/22 06:42:53;;;;;;;;;;;;;;;16.35;49.26;100733.94;4998773;28;1235;-48
2023/03/22 06:45:22;;;;;;;;;;;;;;;15.84;49.15;100736.59;4997357;28;1544;-50
2023/03/22 06:47:49;;;;;;;;;;;;;;;17.43;47.24;100728.38;4997702;28;1244;-45
2023/03/22 06:50:43;;;;;;;;;;;;;;;16.17;49.20;100737.22;4997660;28;1286;-44
2023/03/22 06:53:12;;;;;;;;;;;;;;;15.83;48.66;100735.75;4997314;28;1236;-49
2023/03/22 06:55:39;;;;;;;;;;;;;;;16.19;48.97;100748.75;4997447;28;1976;-49
2023/03/22 06:58:16;;;;;;;;;;;;;;;15.97;49.17;100754.47;4997376;28;1447;-48
2023/03/22 07:00:41;;;;;;;;;;;;;;;16.49;49.00;100747.97;4998541;28;996;-47
2023/03/22 07:03:07;;;;;;;;;;;;;;;17.15;47.65;100745.47;4997404;28;1065;-48
2023/03/22 07:05:39;;;;;;;;;;;;;;;16.19;48.74;100749.56;4996806;28;1202;-46
2023/03/22 07:08:05;;;;;;;;;;;;;;;15.89;48.28;100753.06;4998481;28;1152;-46
2023/03/22 07:10:34;;;;;;;;;;;;;;;16.73;48.71;100753.75;5029522;28;1398;-47
2023/03/22 07:13:01;;;;;;;;;;;;;;;16.00;48.79;100754.72;4997290;28;1298;-46
2023/03/22 07:15:29;;;;;;;;;;;;;;;17.41;47.67;100763.53;4997265;28;1984;-50
2023/03/22 07:18:18;;;;;;;;;;;;;;;16.55;48.69;100759.75;4992672;28;1329;-45
2023/03/22 07:20:44;;;;;;;;;;;;;;;16.07;48.88;100759.97;4996853;28;1053;-50
2023/03/22 07:23:10;;;;;;;;;;;;;;;16.98;48.49;100765.81;4996522;28;1347;-48
2023/03/22 07:25:44;;;;;;;;;;;;;;;16.33;48.84;100771.00;4996984;28;1174;-49
2023/03/22 07:28:31;;;;;;;;;;;;;;;17.49;47.27;100775.06;5029322;28;1327;-49
2023/03/22 07:31:02;;;;;;;;;;;;;;;17.31;47.48;100777.31;4996743;28;1523;-46
2023/03/22 07:33:31;;;;;;;;;;;;;;;16.41;48.83;100774.03;4997117;28;1197;-49
2023/03/22 07:35:57;;;;;;;;;;;;;;;16.26;47.70;100771.28;4996804;28;1914;-52
2023/03/22 07:38:22;;;;;;;;;;;;;;;16.17;48.23;100770.97;4998170;28;1048;-45
2023/03/22 07:40:52;;;;;;;;;;;;;;;16.69;48.86;100776.50;4996203;28;1157;-47
2023/03/22 07:43:18;;;;;;;;;;;;;;;16.26;48.85;100779.50;4996282;28;1278;-47
2023/03/22 07:46:07;;;;;;;;;;;;;;;17.99;46.29;100789.72;4994419;28;1121;-45
2023/03/22 07:49:10;;;;;;;;;;;;;;;16.40;48.84;100788.84;4996482;28;1159;-51
2023/03/22 07:52:02;;;;;;;;;;;;;;;16.17;47.82;100792.09;4996139;28;1178;-45
2023/03/22 07:54:28;;;;;;;;;;;;;;;17.19;48.03;100780.34;4995935;28;1959;-50
2023/03/22 07:56:53;;;;;;;;;;;;;;;16.36;48.46;100790.47;4996218;28;1242;-46
2023/03/22 07:59:19;;;;;;;;;;;;;;;16.05;48.03;100790.41;4997600;28;1195;-48
2023/03/22 08:01:45;;;;;;;;;;;;;;;17.09;48.00;100789.44;4996283;28;1241;-47
2023/03/22 08:04:33;;;;;;;;;;;;;;;16.30;48.38;100790.75;4991625;28;1188;-50
2023/03/22 08:07:17;;;;;;;;;;;;;;;16.77;48.48;100787.78;4982674;28;1074;-51
2023/03/22 08:09:44;;;;;;;;;;;;;;;16.53;48.53;100797.66;4996124;28;1307;-46
2023/03/22 08:12:10;;;;;;;;;;;;;;;16.12;48.13;100795.66;4996150;28;1119;-45
2023/03/22 08:14:37;;;;;;;;;;;;;;;16.16;48.04;100795.91;4995292;28;1906;-48
2023/03/22 08:17:07;;;;;;;;;;;;;;;16.82;48.43;100799.88;4995718;28;1186;-48
2023/03/22 08:19:32;;;;;;;;;;;;;;;16.13;48.53;100801.94;4997057;28;1245;-46
2023/03/22 08:21:58;;;;;;;;;;;;;;;16.09;47.42;100798.94;4995789;28;1402;-46
2023/03/22 08:24:46;;;;;;;;;;;;;;;17.34;47.53;100798.75;4987028;28;1342;-46
2023/03/22 08:27:22;;;;;;;;;;;;;;;16.21;48.64;100798.69;4995688;28;2017;-47
2023/03/22 08:29:49;;;;;;;;;;;;;;;16.00;48.15;100806.84;4995034;28;1418;-48
2023/03/22 08:32:15;;;;;;;;;;;;;;;16.75;48.52;100808.38;4995628;28;1270;-47
2023/03/22 08:34:41;;;;;;;;;;;;;;;16.23;48.84;100797.31;4995484;28;1906;-49
2023/03/22 08:37:07;;;;;;;;;;;;;;;16.01;47.92;100797.53;4995961;28;1130;-50
2023/03/22 08:39:35;;;;;;;;;;;;;;;16.89;48.12;100808.69;4995722;28;1161;-51
2023/03/22 08:42:39;;;;;;;;;;;;;;;16.68;48.80;100816.88;4985590;28;1343;-46
2023/03/22 08:45:05;;;;;;;;;;;;;;;18.25;46.42;100819.88;4995212;28;1156;-50
2023/03/22 08:47:34;;;;;;;;;;;;;;;16.81;48.81;100809.22;5018894;28;1209;-50
2023/03/22 08:50:02;;;;;;;;;;;;;;;16.41;48.47;100815.19;4995467;28;1251;-48
2023/03/22 08:52:43;;;;;;;;;;;;;;;16.18;47.53;100829.41;4976233;28;1358;-46
2023/03/22 08:55:43;;;;;;;;;;;;;;;16.80;48.75;100829.53;4977266;28;1965;-49
2023/03/22 08:58:12;;;;;;;;;;;;;;;16.40;49.15;100837.44;4997062;28;1021;-50
2023/03/22 09:00:58;;;;;;;;;;;;;;;18.00;46.79;100831.84;4976009;28;1263;-47
2023/03/22 09:03:32;;;;;;;;;;;;;;;16.79;48.45;100833.34;5028262;28;1220;-44
2023/03/22 09:05:58;;;;;;;;;;;;;;;16.38;48.31;100834.13;4993657;28;1109;-46
2023/03/22 09:08:28;;;;;;;;;;;;;;;16.22;47.45;100841.50;4995273;28;1181;-43
2023/03/22 09:11:01;;;;;;;;;;;;;;;17.14;48.36;100851.81;4995455;28;1245;-49
2023/03/22 09:13:29;;;;;;;;;;;;;;;16.38;49.06;100848.69;4995343;28;1254;-51
2023/03/22 09:15:59;;;;;;;;;;;;;;;16.35;48.62;100856.63;4995466;28;1903;-52
2023/03/22 09:18:27;;;;;;;;;;;;;;;17.00;48.30;100865.28;4993689;28;1391;-46
2023/03/22 09:20:56;;;;;;;;;;;;;;;16.26;48.59;100864.56;5028392;28;1182;-46
2023/03/22 09:23:29;;;;;;;;;;;;;;;16.61;48.95;100868.50;4995533;28;1213;-45
2023/03/22 09:25:55;;;;;;;;;;;;;;;16.96;48.35;100866.91;4994980;28;1290;-45
2023/03/22 09:28:25;;;;;;;;;;;;;;;16.38;48.35;100869.78;4995107;28;1259;-48
2023/03/22 09:30:53;;;;;;;;;;;;;;;16.03;47.82;100865.81;4996543;28;1094;-49
2023/03/22 09:33:19;;;;;;;;;;;;;;;16.82;48.57;100871.28;4999085;28;1366;-50
2023/03/22 09:35:49;;;;;;;;;;;;;;;16.31;48.15;100867.28;4999258;28;1981;-50
2023/03/22 09:38:15;;;;;;;;;;;;;;;17.60;47.24;100870.19;4998649;28;1215;-47
2023/03/22 09:40:45;;;;;;;;;;;;;;;16.81;48.63;100875.13;4998809;28;1208;-43
2023/03/22 09:43:11;;;;;;;;;;;;;;;16.75;49.27;100869.59;5001337;28;1457;-48
2023/03/22 09:45:38;;;;;;;;;;;;;;;17.87;47.04;100871.75;5001710;28;1366;-51
2023/03/22 09:48:05;;;;;;;;;;;;;;;16.78;48.38;100876.47;5022151;28;1073;-48
2023/03/22 09:50:31;;;;;;;;;;;;;;;16.46;48.03;100871.19;4996559;28;1096;-48
2023/03/22 09:52:57;;;;;;;;;;;;;;;16.25;47.39;100879.38;5000368;28;1088;-51
2023/03/22 09:55:40;;;;;;;;;;;;;;;16.82;48.52;100882.25;4999244;28;1961;-49
2023/03/22 09:58:07;;;;;;;;;;;;;;;16.28;48.17;100880.75;4999536;28;1172;-50
2023/03/22 10:00:37;;;;;;;;;;;;;;;16.77;48.40;100883.91;5000144;28;1096;-48
2023/03/22 10:03:09;;;;;;;;;;;;;;;16.34;48.94;100886.00;5000073;28;1093;-53
2023/03/22 10:05:37;;;;;;;;;;;;;;;16.07;47.83;100876.00;4996027;28;1176;-48
2023/03/22 10:08:18;;;;;;;;;;;;;;;17.14;47.62;100886.69;4998596;28;1185;-49
2023/03/22 10:10:44;;;;;;;;;;;;;;;16.24;48.37;100884.03;5000183;28;1017;-47
2023/03/22 10:13:16;;;;;;;;;;;;;;;16.51;48.35;100887.66;5030935;28;1036;-48
2023/03/22 10:15:43;;;;;;;;;;;;;;;16.68;48.39;100877.28;4999522;28;1910;-49
2023/03/22 10:18:15;;;;;;;;;;;;;;;16.90;48.46;100881.72;5030567;28;1148;-47
2023/03/22 10:20:48;;;;;;;;;;;;;;;18.23;46.20;100875.22;4986106;28;1080;-51
2023/03/22 10:23:15;;;;;;;;;;;;;;;16.87;48.56;100885.84;4998289;28;1073;-52
2023/03/22 10:25:41;;;;;;;;;;;;;;;16.52;47.99;100883.84;5023102;28;1103;-51
2023/03/22 10:28:20;;;;;;;;;;;;;;;17.25;48.58;100878.19;5026079;28;1219;-53
2023/03/22 10:30:49;;;;;;;;;;;;;;;16.62;48.63;100878.38;4998608;28;1148;-50
2023/03/22 10:33:21;;;;;;;;;;;;;;;17.09;48.96;100885.59;4995046;28;1282;-50
2023/03/22 10:35:46;;;;;;;;;;;;;;;17.39;47.94;100875.72;5000832;28;1910;-48
2023/03/22 10:38:17;;;;;;;;;;;;;;;16.57;48.80;100883.84;4996163;28;1413;-51
2023/03/22 10:40:43;;;;;;;;;;;;;;;16.43;48.33;100881.63;4997415;28;1084;-48
2023/03/22 10:43:14;;;;;;;;;;;;;;;17.44;47.93;100872.94;4998425;28;1120;-47
2023/03/22 10:45:40;;;;;;;;;;;;;;;16.61;48.51;100876.72;4991226;28;1398;-50
2023/03/22 10:48:10;;;;;;;;;;;;;;;16.33;47.80;100881.59;4997496;28;1140;-48
2023/03/22 10:50:37;;;;;;;;;;;;;;;17.07;48.26;100890.56;4985848;28;1236;-48
2023/03/22 10:53:03;;;;;;;;;;;;;;;16.37;48.65;100882.69;4999041;28;1148;-50
2023/03/22 10:55:28;;;;;;;;;;;;;;;16.22;47.93;100877.97;4998440;28;1904;-48
2023/03/22 10:57:58;;;;;;;;;;;;;;;17.03;47.75;100881.22;4998424;28;1067;-49
2023/03/22 11:00:24;;;;;;;;;;;;;;;16.31;48.55;100881.03;5030214;28;1052;-48
2023/03/22 11:02:50;;;;;;;;;;;;;;;16.46;48.60;100882.19;4998961;28;1152;-50
2023/03/22 11:05:23;;;;;;;;;;;;;;;16.75;48.49;100877.84;4998673;28;1108;-48
2023/03/22 11:07:49;;;;;;;;;;;;;;;16.20;48.12;100871.09;4998042;28;942;-50
2023/03/22 11:10:18;;;;;;;;;;;;;;;16.12;47.51;100861.50;4998268;28;1076;-52
2023/03/22 11:13:09;;;;;;;;;;;;;;;16.83;47.96;100861.91;4998532;28;1123;-51
2023/03/22 11:15:35;;;;;;;;;;;;;;;16.10;48.16;100855.44;4998007;28;1911;-51
2023/03/22 11:18:03;;;;;;;;;;;;;;;17.16;47.82;100859.78;5021655;28;1202;-50
2023/03/22 11:20:29;;;;;;;;;;;;;;;16.39;48.66;100863.22;4996505;28;1037;-46
2023/03/22 11:22:56;;;;;;;;;;;;;;;16.16;47.98;100868.09;4998288;28;1483;-50
2023/03/22 11:25:25;;;;;;;;;;;;;;;16.92;47.98;100863.06;4998218;28;1065;-47
2023/03/22 11:27:52;;;;;;;;;;;;;;;16.39;48.41;100864.03;5029889;28;1087;-47
2023/03/22 11:30:21;;;;;;;;;;;;;;;16.10;48.08;100860.09;4998021;28;1052;-50
2023/03/22 11:32:46;;;;;;;;;;;;;;;17.23;47.28;100843.84;4998437;28;1180;-49
2023/03/22 11:35:13;;;;;;;;;;;;;;;16.26;48.37;100853.59;5029522;28;1901;-45
2023/03/22 11:37:49;;;;;;;;;;;;;;;16.06;47.80;100866.13;4984640;28;1192;-48
2023/03/22 11:40:24;;;;;;;;;;;;;;;17.04;47.50;100858.13;4997951;28;1247;-50
2023/03/22 11:42:54;;;;;;;;;;;;;;;16.24;48.41;100858.50;4983013;28;1152;-49
2023/03/22 11:45:24;;;;;;;;;;;;;;;16.89;48.12;100844.41;4998316;28;1176;-48
2023/03/22 11:47:50;;;;;;;;;;;;;;;16.56;48.16;100841.88;5023270;28;1179;-47
2023/03/22 11:50:25;;;;;;;;;;;;;;;16.06;48.25;100846.09;4978700;28;1275;-49
2023/03/22 11:52:50;;;;;;;;;;;;;;;16.03;47.33;100844.72;4985836;28;1052;-48
2023/03/22 11:55:16;;;;;;;;;;;;;;;17.19;47.47;100842.75;5028645;28;1906;-50
2023/03/22 11:57:42;;;;;;;;;;;;;;;16.30;48.52;100849.22;5029518;28;1243;-46
2023/03/22 12:00:20;;;;;;;;;;;;;;;16.05;47.80;100841.72;4997990;28;1139;-51
2023/03/22 12:02:49;;;;;;;;;;;;;;;16.56;48.25;100846.50;4997771;28;1280;-50
2023/03/22 12:05:23;;;;;;;;;;;;;;;16.21;48.53;100837.09;5028802;28;1496;-48
2023/03/22 12:08:08;;;;;;;;;;;;;;;18.02;46.30;100835.97;5002866;28;1837;-51
2023/03/22 12:10:37;;;;;;;;;;;;;;;16.74;48.42;100832.25;4975555;28;1407;-50
2023/03/22 12:13:09;;;;;;;;;;;;;;;16.33;48.04;100826.72;5029213;28;1064;-50
2023/03/22 12:15:35;;;;;;;;;;;;;;;17.40;47.73;100825.13;4983990;28;1967;-50
2023/03/22 12:18:04;;;;;;;;;;;;;;;16.51;48.54;100833.63;4996333;28;1146;-48
2023/03/22 12:20:40;;;;;;;;;;;;;;;17.50;47.84;100834.44;4995697;28;1216;-48
2023/03/22 12:23:14;;;;;;;;;;;;;;;17.32;48.05;100825.69;4997696;28;1064;-49
2023/03/22 12:25:39;;;;;;;;;;;;;;;16.63;48.21;100829.78;4997149;28;1014;-49
2023/03/22 12:28:06;;;;;;;;;;;;;;;16.36;48.06;100830.84;5028855;28;1056;-48
2023/03/22 12:30:47;;;;;;;;;;;;;;;16.18;47.47;100827.47;4997040;28;1122;-45
2023/03/22 12:33:26;;;;;;;;;;;;;;;16.27;47.59;100824.22;5024291;28;1041;-51
2023/03/22 12:35:54;;;;;;;;;;;;;;;16.80;48.50;100818.53;4988391;28;1973;-52
2023/03/22 12:38:22;;;;;;;;;;;;;;;16.21;48.56;100817.88;4997049;28;1020;-50
2023/03/22 12:40:48;;;;;;;;;;;;;;;16.12;47.44;100819.50;4996925;28;1511;-53
2023/03/22 12:43:19;;;;;;;;;;;;;;;17.14;47.92;100818.84;5025233;28;1184;-55
2023/03/22 12:45:47;;;;;;;;;;;;;;;16.45;48.59;100815.47;4995541;28;1344;-54
2023/03/22 12:48:15;;;;;;;;;;;;;;;16.25;48.63;100813.50;5026828;28;1154;-54
2023/03/22 12:50:42;;;;;;;;;;;;;;;17.00;48.22;100818.56;4984519;28;1134;-53
2023/03/22 12:53:11;;;;;;;;;;;;;;;16.40;48.25;100824.53;5028531;28;1130;-53
2023/03/22 12:55:37;;;;;;;;;;;;;;;16.11;47.70;100824.16;5014862;28;1976;-51
2023/03/22 12:58:06;;;;;;;;;;;;;;;16.31;47.65;100822.56;4997091;28;1464;-51
2023/03/22 13:00:52;;;;;;;;;;;;;;;16.47;48.61;100826.19;4983375;28;1227;-56
2023/03/22 13:03:17;;;;;;;;;;;;;;;16.11;47.75;100817.88;4996544;28;1326;-56